Time;durP1;ratioP1;P1;durP2;ratioP2;P2;SDS_P1;SDS_P2;PMS_P1;PMS_P2;Temp;Humidity;BMP_temperature;BMP_pressure;BME280_temperature;BME280_humidity;BME280_pressure;Samples;Min_cycle;Max_cycle;Signal;HPM_P1;HPM_P2
2021/05/30 00:01:48;;;;;;;6.57;4.18;;;;;;;7.06;74.64;102669.25;4998800;28;20107;-75
2021/05/30 00:04:13;;;;;;;9.02;4.75;;;;;;;7.06;74.30;102669.25;4996646;28;20470;-75
2021/05/30 00:06:39;;;;;;;8.10;4.93;;;;;;;7.00;74.50;102669.94;5010541;28;20477;-75
2021/05/30 00:09:05;;;;;;;5.38;4.07;;;;;;;6.99;74.39;102663.78;5015129;28;20029;-75
2021/05/30 00:11:34;;;;;;;5.95;4.13;;;;;;;6.96;74.38;102667.63;5013700;28;20029;-76
2021/05/30 00:14:00;;;;;;;7.18;4.50;;;;;;;6.96;74.63;102664.97;5013041;28;20113;-75
2021/05/30 00:16:26;;;;;;;7.63;4.80;;;;;;;6.86;75.74;102659.06;5001625;28;20112;-75
2021/05/30 00:18:51;;;;;;;6.38;4.35;;;;;;;6.90;74.71;102663.03;5004883;28;20179;-75
2021/05/30 00:21:17;;;;;;;7.13;4.80;;;;;;;6.87;75.11;102660.72;5004074;28;20029;-75
2021/05/30 00:23:42;;;;;;;7.53;4.72;;;;;;;6.87;75.22;102659.91;5013367;28;20491;-75
2021/05/30 00:26:08;;;;;;;9.25;4.40;;;;;;;6.80;75.33;102664.25;5012906;28;20029;-78
2021/05/30 00:28:33;;;;;;;6.30;4.47;;;;;;;6.80;74.95;102658.94;5006906;28;20509;-78
2021/05/30 00:30:59;;;;;;;9.52;4.00;;;;;;;6.82;74.79;102662.25;5000508;28;20033;-79
2021/05/30 00:33:24;;;;;;;6.50;5.28;;;;;;;6.76;74.84;102658.44;5010363;28;20029;-78
2021/05/30 00:35:50;;;;;;;8.32;4.38;;;;;;;6.71;75.07;102665.31;5010507;28;20034;-77
2021/05/30 00:38:15;;;;;;;6.72;4.20;;;;;;;6.69;75.06;102662.00;5003220;28;20029;-78
2021/05/30 00:40:41;;;;;;;9.75;4.80;;;;;;;6.68;74.94;102665.69;5016665;28;20064;-77
2021/05/30 00:43:07;;;;;;;8.23;5.05;;;;;;;6.62;75.77;102673.34;5024815;28;20415;-77
2021/05/30 00:45:33;;;;;;;6.20;4.10;;;;;;;6.62;75.79;102670.69;5021889;28;20030;-78
2021/05/30 00:47:58;;;;;;;7.50;4.32;;;;;;;6.60;75.76;102663.88;5009798;28;20044;-77
2021/05/30 00:50:24;;;;;;;8.63;4.47;;;;;;;6.60;75.47;102669.19;5026375;28;20025;-78
2021/05/30 00:52:49;;;;;;;10.05;4.88;;;;;;;6.59;75.40;102662.22;5019804;28;20024;-77
2021/05/30 00:55:16;;;;;;;5.32;4.20;;;;;;;6.56;75.30;102674.06;5024931;28;20038;-78
2021/05/30 00:57:41;;;;;;;8.82;4.38;;;;;;;6.57;74.90;102675.72;5019660;28;20621;-77
2021/05/30 01:00:10;;;;;;;9.35;4.57;;;;;;;6.53;75.15;102669.09;5011039;28;20025;-78
2021/05/30 01:02:36;;;;;;;7.30;4.40;;;;;;;6.49;75.01;102670.44;5019690;28;20464;-78
2021/05/30 01:05:01;;;;;;;7.82;4.72;;;;;;;6.49;74.69;102664.28;5021937;28;20036;-77
2021/05/30 01:07:27;;;;;;;6.85;4.40;;;;;;;6.45;74.77;102661.13;5009985;28;20125;-78
2021/05/30 01:09:52;;;;;;;6.28;3.75;;;;;;;6.39;75.16;102661.00;5005772;28;20037;-77
2021/05/30 01:12:19;;;;;;;7.38;4.00;;;;;;;6.36;75.62;102665.66;5022493;28;20491;-77
2021/05/30 01:14:45;;;;;;;10.40;4.90;;;;;;;6.23;76.71;102673.38;5019495;28;20029;-78
2021/05/30 01:17:11;;;;;;;6.32;3.97;;;;;;;6.31;75.57;102670.69;5009729;28;20052;-77
2021/05/30 01:19:38;;;;;;;7.80;4.20;;;;;;;6.34;75.28;102662.34;5009394;28;20034;-75
2021/05/30 01:22:07;;;;;;;7.05;3.88;;;;;;;6.34;75.87;102670.34;4998221;28;20030;-76
2021/05/30 01:24:36;;;;;;;7.25;4.28;;;;;;;6.32;75.40;102676.84;5020876;28;20059;-75
2021/05/30 01:27:02;;;;;;;7.30;3.58;;;;;;;6.29;75.51;102670.03;5019866;28;20051;-75
2021/05/30 01:29:27;;;;;;;6.13;3.97;;;;;;;6.31;74.84;102673.34;5017645;28;20484;-75
2021/05/30 01:31:53;;;;;;;6.88;4.30;;;;;;;6.18;75.68;102675.72;4998563;28;20033;-75
2021/05/30 01:34:18;;;;;;;8.43;4.53;;;;;;;6.15;75.50;102675.25;5024134;28;20033;-75
2021/05/30 01:36:44;;;;;;;6.95;4.18;;;;;;;6.05;76.04;102681.56;5023107;28;20040;-75
2021/05/30 01:39:09;;;;;;;6.60;4.32;;;;;;;5.89;76.28;102683.41;5003348;28;20061;-75
2021/05/30 01:41:35;;;;;;;6.65;3.83;;;;;;;5.68;77.88;102678.63;5025915;28;20112;-75
2021/05/30 01:44:00;;;;;;;6.90;4.57;;;;;;;5.53;79.29;102681.13;5017783;28;20060;-75
2021/05/30 01:46:26;;;;;;;7.47;4.22;;;;;;;5.43;79.86;102683.97;5025300;28;20026;-75
2021/05/30 01:48:52;;;;;;;10.15;4.75;;;;;;;5.44;79.53;102688.31;5015849;28;20053;-75
2021/05/30 01:51:17;;;;;;;7.68;4.80;;;;;;;5.38;78.60;102682.81;5002452;28;20029;-75
2021/05/30 01:53:55;;;;;;;8.60;4.78;;;;;;;5.36;78.06;102690.13;5003463;28;20488;-75
2021/05/30 01:59:05;;;;;;;8.05;4.18;;;;;;;5.17;78.18;102696.59;5017429;28;20443;-75
2021/05/30 02:01:35;;;;;;;11.32;4.90;;;;;;;5.14;77.51;102694.25;5018749;28;20056;-75
2021/05/30 02:04:04;;;;;;;8.18;4.30;;;;;;;5.19;77.00;102691.94;5005581;28;20399;-75
2021/05/30 02:06:31;;;;;;;9.02;4.70;;;;;;;5.04;78.02;102691.78;5002020;28;20064;-75
2021/05/30 02:08:58;;;;;;;9.07;4.47;;;;;;;4.96;nan;102693.56;5019760;28;20049;-75
2021/05/30 02:11:23;;;;;;;8.05;4.93;;;;;;;4.88;nan;102693.56;5016241;28;20030;-75
2021/05/30 02:13:49;;;;;;;7.60;5.05;;;;;;;4.79;nan;102695.34;5019107;28;20079;-75
2021/05/30 02:16:15;;;;;;;9.85;5.25;;;;;;;4.74;nan;102698.50;5017872;28;20108;-75
2021/05/30 02:18:41;;;;;;;7.50;4.97;;;;;;;4.64;nan;102689.84;5004888;28;20480;-75
2021/05/30 02:21:06;;;;;;;8.57;4.60;;;;;;;4.66;nan;102697.63;5019489;28;20037;-75
2021/05/30 02:23:32;;;;;;;7.45;4.72;;;;;;;4.49;nan;102700.25;5002174;28;20498;-75
2021/05/30 02:25:57;;;;;;;6.85;4.38;;;;;;;4.50;nan;102698.44;5016139;28;20029;-75
2021/05/30 02:28:23;;;;;;;7.05;3.83;;;;;;;4.48;nan;102698.56;5017872;28;20371;-75
2021/05/30 02:30:48;;;;;;;8.95;4.97;;;;;;;4.43;nan;102700.88;4996299;28;20481;-75
2021/05/30 02:33:14;;;;;;;10.55;5.63;;;;;;;4.19;nan;102708.75;5003156;28;20494;-75
2021/05/30 02:35:40;;;;;;;9.70;5.00;;;;;;;3.96;nan;102707.63;5002375;28;20392;-75
2021/05/30 02:38:05;;;;;;;11.60;5.10;;;;;;;4.11;nan;102716.63;4993906;28;20026;-75
2021/05/30 02:40:31;;;;;;;6.65;4.75;;;;;;;4.24;nan;102714.41;5004936;28;20068;-75
2021/05/30 02:42:57;;;;;;;10.05;4.45;;;;;;;4.22;nan;102711.91;5016268;28;20587;-75
2021/05/30 02:45:22;;;;;;;6.05;4.53;;;;;;;4.15;nan;102708.22;5000079;28;20041;-75
2021/05/30 02:47:48;;;;;;;7.80;4.50;;;;;;;4.10;nan;102713.16;5002007;28;20033;-75
2021/05/30 02:50:13;;;;;;;9.73;4.53;;;;;;;4.05;nan;102711.97;5018476;28;20021;-75
2021/05/30 02:52:40;;;;;;;9.07;4.53;;;;;;;4.01;nan;102713.28;5002625;28;20030;-75
2021/05/30 02:55:06;;;;;;;7.53;4.88;;;;;;;3.99;nan;102715.25;5019387;28;20035;-75
2021/05/30 02:57:32;;;;;;;8.75;4.32;;;;;;;3.97;nan;102718.06;5018334;28;20033;-75
2021/05/30 02:59:57;;;;;;;7.78;4.05;;;;;;;3.94;nan;102724.50;5011618;28;20037;-75
2021/05/30 03:02:23;;;;;;;5.75;4.00;;;;;;;3.89;nan;102726.78;5000681;28;20388;-75
2021/05/30 03:04:48;;;;;;;10.13;4.82;;;;;;;3.90;nan;102731.09;5016300;28;20104;-75
2021/05/30 03:07:13;;;;;;;11.63;4.95;;;;;;;3.98;nan;102737.47;5019214;28;20539;-75
2021/05/30 03:09:39;;;;;;;7.70;4.97;;;;;;;4.11;nan;102738.69;5017350;28;20029;-75
2021/05/30 03:12:06;;;;;;;8.70;4.63;;;;;;;4.07;nan;102739.16;5017019;28;20030;-74
2021/05/30 03:14:31;;;;;;;10.95;5.68;;;;;;;4.14;nan;102734.91;5014540;28;20523;-75
2021/05/30 03:16:57;;;;;;;9.63;5.22;;;;;;;4.11;nan;102743.16;5019180;28;20065;-75
2021/05/30 03:19:22;;;;;;;7.30;4.53;;;;;;;4.14;nan;102745.53;5019707;28;20360;-74
2021/05/30 03:21:48;;;;;;;11.93;5.72;;;;;;;4.32;nan;102748.13;5017458;28;20029;-75
2021/05/30 03:24:14;;;;;;;8.80;4.60;;;;;;;4.39;nan;102747.31;5003577;28;20504;-75
2021/05/30 03:26:39;;;;;;;8.48;5.20;;;;;;;4.47;nan;102752.66;5014855;28;20026;-75
2021/05/30 03:29:04;;;;;;;11.68;5.75;;;;;;;4.53;nan;102752.03;5016276;28;20022;-75
2021/05/30 03:31:30;;;;;;;13.80;5.35;;;;;;;4.63;nan;102751.06;5014915;28;20123;-75
2021/05/30 03:33:56;;;;;;;9.30;5.10;;;;;;;4.69;nan;102745.97;5015913;28;20056;-75
2021/05/30 03:36:28;;;;;;;8.50;4.30;;;;;;;4.77;nan;102748.63;5001615;28;20075;-75
2021/05/30 03:39:01;;;;;;;7.95;4.53;;;;;;;4.83;nan;102752.47;5000338;28;20499;-75
2021/05/30 03:41:33;;;;;;;8.20;5.05;;;;;;;4.94;nan;102759.31;5004752;28;20025;-75
2021/05/30 03:44:00;;;;;;;9.50;5.63;;;;;;;5.04;nan;102752.06;5014840;28;20018;-75
2021/05/30 03:46:26;;;;;;;9.57;5.38;;;;;;;5.13;nan;102751.06;5019357;28;20025;-74
2021/05/30 03:48:52;;;;;;;10.15;4.63;;;;;;;5.25;nan;102762.22;4999135;28;20029;-75
2021/05/30 03:51:17;;;;;;;8.80;4.97;;;;;;;5.27;nan;102757.56;5014164;28;20030;-75
2021/05/30 03:53:42;;;;;;;10.55;5.35;;;;;;;5.37;nan;102751.09;5012881;28;20472;-75
2021/05/30 03:56:08;;;;;;;8.40;5.25;;;;;;;5.53;nan;102750.25;5016851;28;20446;-75
2021/05/30 03:58:33;;;;;;;8.45;5.13;;;;;;;5.62;nan;102751.94;5011069;28;20121;-74
2021/05/30 04:00:59;;;;;;;9.07;4.78;;;;;;;5.74;nan;102752.41;5015388;28;20025;-75
2021/05/30 04:03:25;;;;;;;9.80;4.85;;;;;;;5.91;nan;102753.28;5015637;28;20502;-75
2021/05/30 04:05:50;;;;;;;8.30;4.90;;;;;;;6.06;nan;102762.22;5013283;28;20029;-75
2021/05/30 04:08:15;;;;;;;8.32;4.90;;;;;;;6.17;nan;102753.09;5013506;28;20037;-75
2021/05/30 04:10:44;;;;;;;10.20;5.35;;;;;;;6.31;nan;102750.56;5012562;28;20025;-75
2021/05/30 04:13:09;;;;;;;7.88;4.75;;;;;;;6.54;nan;102755.13;5000525;28;20077;-75
2021/05/30 04:15:35;;;;;;;8.65;5.05;;;;;;;6.72;nan;102747.72;5016334;28;20479;-75
2021/05/30 04:18:00;;;;;;;9.07;5.35;;;;;;;6.82;nan;102753.69;5003499;28;20087;-75
2021/05/30 04:20:26;;;;;;;9.73;5.28;;;;;;;7.03;nan;102753.06;5003398;28;20511;-75
2021/05/30 04:22:51;;;;;;;7.45;4.60;;;;;;;7.17;nan;102751.47;5014367;28;20029;-74
2021/05/30 04:25:17;;;;;;;7.75;4.60;;;;;;;7.32;nan;102747.03;5013315;28;20083;-75
2021/05/30 04:27:45;;;;;;;9.70;5.32;;;;;;;7.49;nan;102737.06;5015763;28;20028;-75
2021/05/30 04:30:13;;;;;;;8.00;5.07;;;;;;;7.66;nan;102749.28;5001539;28;20034;-75
2021/05/30 04:32:39;;;;;;;6.97;4.55;;;;;;;7.87;nan;102746.75;5006125;28;20022;-75
2021/05/30 04:35:07;;;;;;;8.73;4.75;;;;;;;7.98;nan;102745.47;4994711;28;20037;-75
2021/05/30 04:37:32;;;;;;;8.52;5.00;;;;;;;8.06;nan;102753.38;5017474;28;20061;-75
2021/05/30 04:39:58;;;;;;;8.27;4.53;;;;;;;8.24;nan;102753.03;5018470;28;20030;-75
2021/05/30 04:42:23;;;;;;;8.43;4.25;;;;;;;8.44;nan;102746.19;4999296;28;20526;-75
2021/05/30 04:44:49;;;;;;;11.30;4.85;;;;;;;8.60;nan;102755.00;5018011;28;20095;-75
2021/05/30 04:47:15;;;;;;;7.75;4.10;;;;;;;8.71;nan;102754.53;5004755;28;20026;-75
2021/05/30 04:49:41;;;;;;;10.32;5.20;;;;;;;8.84;nan;102752.03;5016997;28;20084;-75
2021/05/30 04:52:07;;;;;;;8.80;4.78;;;;;;;8.97;nan;102741.47;4996527;28;20030;-75
2021/05/30 04:54:33;;;;;;;8.30;4.97;;;;;;;9.15;nan;102751.75;5020766;28;20414;-75
2021/05/30 04:56:59;;;;;;;11.52;4.65;;;;;;;9.24;nan;102753.28;5017899;28;20048;-75
2021/05/30 04:59:24;;;;;;;9.75;4.25;;;;;;;9.33;nan;102748.63;5006403;28;20492;-75
2021/05/30 05:01:51;;;;;;;6.30;3.85;;;;;;;9.52;nan;102741.84;5019418;28;20029;-75
2021/05/30 05:04:16;;;;;;;9.48;4.47;;;;;;;9.72;nan;102750.03;5015655;28;20104;-75
2021/05/30 05:06:42;;;;;;;8.95;3.85;;;;;;;9.81;nan;102744.34;5018177;28;20112;-75
2021/05/30 05:09:08;;;;;;;7.63;4.22;;;;;;;10.00;nan;102749.00;5000601;28;20091;-75
2021/05/30 05:11:34;;;;;;;14.40;5.18;;;;;;;10.11;nan;102744.13;5011998;28;20477;-75
2021/05/30 05:14:00;;;;;;;9.90;4.75;;;;;;;10.25;nan;102748.59;4998914;28;20040;-75
2021/05/30 05:16:26;;;;;;;10.38;5.20;;;;;;;10.37;nan;102743.50;5014201;28;20045;-75
2021/05/30 05:18:51;;;;;;;9.35;4.55;;;;;;;10.50;nan;102748.94;5002030;28;20032;-75
2021/05/30 05:21:17;;;;;;;13.20;5.95;;;;;;;10.59;nan;102750.41;5015390;28;20124;-75
2021/05/30 05:23:43;;;;;;;9.00;4.57;;;;;;;10.77;nan;102744.50;5016184;28;20026;-75
2021/05/30 05:26:08;;;;;;;13.63;5.75;;;;;;;10.91;nan;102751.56;5013996;28;20053;-75
2021/05/30 05:28:34;;;;;;;12.68;4.82;;;;;;;10.96;nan;102757.16;5015583;28;20752;-75
2021/05/30 05:31:00;;;;;;;12.05;5.00;;;;;;;11.05;nan;102749.75;5002410;28;20026;-76
2021/05/30 05:33:26;;;;;;;12.15;4.90;;;;;;;11.19;nan;102749.59;5018050;28;20037;-75
2021/05/30 05:35:51;;;;;;;10.20;4.43;;;;;;;11.37;nan;102754.38;4999353;28;20371;-75
2021/05/30 05:38:18;;;;;;;9.90;4.63;;;;;;;11.48;nan;102755.59;5016533;28;20037;-75
2021/05/30 05:40:44;;;;;;;11.05;4.25;;;;;;;11.57;nan;102757.06;5017188;28;20159;-75
2021/05/30 05:43:10;;;;;;;8.32;4.30;;;;;;;11.72;nan;102749.66;5015814;28;20554;-76
2021/05/30 05:45:36;;;;;;;9.73;3.85;;;;;;;11.84;nan;102754.41;4997407;28;20052;-75
2021/05/30 05:48:08;;;;;;;6.75;3.92;;;;;;;11.99;nan;102761.22;5003321;28;20033;-75
2021/05/30 05:50:33;;;;;;;9.10;4.18;;;;;;;12.07;nan;102762.88;5020156;28;20025;-75
2021/05/30 05:52:59;;;;;;;7.80;3.80;;;;;;;12.25;nan;102768.44;5016695;28;20081;-75
2021/05/30 05:55:24;;;;;;;7.13;3.65;;;;;;;12.24;nan;102769.47;5019669;28;20643;-77
2021/05/30 05:57:51;;;;;;;8.13;3.42;;;;;;;12.28;nan;102775.25;5007331;28;20041;-75
2021/05/30 06:00:19;;;;;;;9.02;3.63;;;;;;;12.50;nan;102767.72;5000811;28;20442;-76
2021/05/30 06:02:47;;;;;;;8.60;3.88;;;;;;;12.63;nan;102763.16;5002779;28;20965;-76
2021/05/30 06:05:16;;;;;;;5.60;3.25;;;;;;;12.76;nan;102764.97;5018461;28;20063;-75
2021/05/30 06:07:42;;;;;;;7.75;3.30;;;;;;;12.81;nan;102769.69;5019673;28;20028;-76
2021/05/30 06:10:08;;;;;;;11.32;3.47;;;;;;;12.93;nan;102773.38;5017559;28;20026;-76
2021/05/30 06:12:33;;;;;;;7.18;3.30;;;;;;;13.05;nan;102773.50;5001314;28;20029;-76
2021/05/30 06:14:59;;;;;;;8.75;3.67;;;;;;;13.14;nan;102769.53;5015322;28;20040;-75
2021/05/30 06:17:24;;;;;;;6.88;3.15;;;;;;;13.29;nan;102767.41;4998260;28;20022;-76
2021/05/30 06:19:51;;;;;;;9.13;3.63;;;;;;;13.38;nan;102765.28;5020793;28;20037;-76
2021/05/30 06:22:17;;;;;;;7.28;3.40;;;;;;;13.48;nan;102769.13;5017444;28;20080;-75
2021/05/30 06:24:43;;;;;;;9.55;3.47;;;;;;;13.71;nan;102763.16;4999989;28;20037;-76
2021/05/30 06:27:09;;;;;;;7.80;3.60;;;;;;;13.88;nan;102774.22;5016409;28;20055;-75
2021/05/30 06:29:35;;;;;;;8.27;2.78;;;;;;;13.86;nan;102768.22;5004113;28;20121;-76
2021/05/30 06:32:00;;;;;;;6.07;3.20;;;;;;;13.99;nan;102768.06;5016179;28;20148;-76
2021/05/30 06:34:26;;;;;;;6.97;3.22;;;;;;;14.00;nan;102768.91;5003048;28;20034;-76
2021/05/30 06:36:52;;;;;;;8.90;2.85;;;;;;;14.10;nan;102770.06;5017970;28;20525;-76
2021/05/30 06:39:18;;;;;;;7.47;3.20;;;;;;;14.15;nan;102761.28;5014592;28;20422;-75
2021/05/30 06:41:44;;;;;;;6.07;3.58;;;;;;;14.23;nan;102762.91;5017784;28;20040;-76
2021/05/30 06:44:10;;;;;;;5.72;2.75;;;;;;;14.29;nan;102765.50;5014148;28;20033;-76
2021/05/30 06:46:35;;;;;;;4.88;2.47;;;;;;;14.44;nan;102770.56;5017779;28;20036;-76
2021/05/30 06:49:01;;;;;;;8.18;3.08;;;;;;;14.54;nan;102768.16;5002756;28;20021;-76
2021/05/30 06:51:31;;;;;;;4.03;2.83;;;;;;;14.60;nan;102759.19;5015108;28;20037;-76
2021/05/30 06:53:59;;;;;;;5.13;2.78;;;;;;;14.72;nan;102768.19;5003934;28;20025;-76
2021/05/30 06:56:26;;;;;;;3.88;2.17;;;;;;;14.80;nan;102764.31;5015327;28;20438;-76
2021/05/30 06:58:51;;;;;;;6.78;2.65;;;;;;;14.86;nan;102762.59;5007833;28;20471;-76
2021/05/30 07:01:19;;;;;;;5.30;2.10;;;;;;;14.95;nan;102761.22;4996583;28;20029;-76
2021/05/30 07:03:45;;;;;;;4.78;2.10;;;;;;;15.01;nan;102755.72;5016740;28;20858;-76
2021/05/30 07:06:11;;;;;;;3.58;1.98;;;;;;;15.19;nan;102762.97;5002409;28;20044;-75
2021/05/30 07:08:36;;;;;;;5.47;1.92;;;;;;;15.28;nan;102766.19;5017414;28;20396;-76
2021/05/30 07:11:02;;;;;;;4.53;1.98;;;;;;;15.22;nan;102767.06;4999914;28;20026;-76
2021/05/30 07:13:28;;;;;;;3.70;2.05;;;;;;;15.38;nan;102772.63;5017544;28;20040;-76
2021/05/30 07:15:54;;;;;;;3.58;2.22;;;;;;;15.51;nan;102760.00;5001154;28;20029;-76
2021/05/30 07:18:20;;;;;;;3.38;1.90;;;;;;;15.60;nan;102769.44;5001273;28;20030;-79
2021/05/30 07:20:47;;;;;;;5.57;2.03;;;;;;;15.86;nan;102763.59;5011374;28;20029;-78
2021/05/30 07:23:14;;;;;;;5.38;1.50;;;;;;;15.88;nan;102772.28;5026408;28;20022;-78
2021/05/30 07:25:39;;;;;;;2.08;1.48;;;;;;;15.91;nan;102766.41;5002159;28;20022;-78
2021/05/30 07:28:06;;;;;;;1.77;1.02;;;;;;;16.00;nan;102769.59;5018409;28;20052;-77
2021/05/30 07:30:32;;;;;;;3.63;1.45;;;;;;;15.92;nan;102769.94;5017839;28;20075;-77
2021/05/30 07:32:58;;;;;;;2.72;1.27;;;;;;;16.14;nan;102775.56;5024449;28;20071;-77
2021/05/30 07:35:24;;;;;;;2.45;1.20;;;;;;;16.21;nan;102773.59;5019533;28;20025;-79
2021/05/30 07:37:49;;;;;;;3.85;1.15;;;;;;;16.25;nan;102777.47;5002910;28;20021;-76
2021/05/30 07:40:16;;;;;;;3.40;1.42;;;;;;;16.37;nan;102782.88;5017116;28;20530;-76
2021/05/30 07:42:42;;;;;;;2.20;1.20;;;;;;;16.33;nan;102782.50;5003201;28;20034;-76
2021/05/30 07:45:08;;;;;;;1.50;1.20;;;;;;;16.34;nan;102781.47;5013386;28;20396;-76
2021/05/30 07:47:34;;;;;;;3.40;1.30;;;;;;;16.54;nan;102776.47;4992326;28;20163;-76
2021/05/30 07:50:00;;;;;;;2.13;1.20;;;;;;;16.66;nan;102772.91;4999023;28;20150;-76
2021/05/30 07:52:25;;;;;;;1.52;1.27;;;;;;;16.71;nan;102775.78;5012801;28;20507;-76
2021/05/30 07:54:51;;;;;;;2.42;1.33;;;;;;;16.75;nan;102783.16;4997284;28;20032;-76
2021/05/30 07:57:16;;;;;;;5.65;1.60;;;;;;;16.93;nan;102774.03;5015323;28;20135;-76
2021/05/30 07:59:42;;;;;;;1.90;1.10;;;;;;;17.07;nan;102774.59;5000879;28;20033;-76
2021/05/30 08:02:07;;;;;;;1.88;1.23;;;;;;;17.13;nan;102771.72;5001945;28;20026;-76
2021/05/30 08:04:33;;;;;;;1.75;1.00;;;;;;;17.20;nan;102782.38;5017303;28;20037;-76
2021/05/30 08:07:00;;;;;;;2.67;1.30;;;;;;;17.04;nan;102775.03;5012483;28;20038;-76
2021/05/30 08:09:26;;;;;;;4.45;1.50;;;;;;;17.03;nan;102768.81;4997744;28;20033;-76
2021/05/30 08:11:53;;;;;;;3.13;1.30;;;;;;;17.09;nan;102773.28;5012585;28;20025;-76
2021/05/30 08:14:21;;;;;;;2.95;1.20;;;;;;;17.18;nan;102777.22;5020219;28;20430;-76
2021/05/30 08:16:46;;;;;;;2.38;1.05;;;;;;;17.28;nan;102770.34;5016884;28;20025;-76
2021/05/30 08:19:13;;;;;;;2.35;1.58;;;;;;;17.42;nan;102772.50;5017465;28;20079;-76
2021/05/30 08:21:39;;;;;;;3.65;1.20;;;;;;;17.75;nan;102765.47;5006137;28;20025;-76
2021/05/30 08:24:06;;;;;;;2.55;1.30;;;;;;;17.94;nan;102760.59;5020192;28;20080;-77
2021/05/30 08:26:32;;;;;;;2.65;1.17;;;;;;;18.12;nan;102763.88;5023717;28;20399;-79
2021/05/30 08:28:57;;;;;;;2.55;1.50;;;;;;;18.10;nan;102757.88;5021191;28;20030;-78
2021/05/30 08:31:23;;;;;;;2.97;1.67;;;;;;;18.31;nan;102759.00;5025905;28;21695;-78
2021/05/30 08:33:48;;;;;;;2.83;1.40;;;;;;;18.41;nan;102766.44;5022989;28;20057;-78
2021/05/30 08:36:14;;;;;;;2.83;1.08;;;;;;;18.34;nan;102765.81;5010894;28;20079;-78
2021/05/30 08:38:39;;;;;;;7.47;3.60;;;;;;;17.42;nan;102777.13;5027313;28;20057;-79
2021/05/30 08:41:05;;;;;;;5.65;3.72;;;;;;;17.84;nan;102763.19;5022841;28;20032;-78
2021/05/30 08:43:30;;;;;;;3.08;2.10;;;;;;;18.18;nan;102769.38;5009229;28;20595;-78
2021/05/30 08:45:56;;;;;;;1.88;1.40;;;;;;;18.41;nan;102769.16;5016302;28;20033;-78
2021/05/30 08:48:22;;;;;;;2.38;1.77;;;;;;;18.33;nan;102765.00;5020512;28;20059;-79
2021/05/30 08:51:02;;;;;;;2.33;1.17;;;;;;;17.84;nan;102763.19;5014373;28;20113;-80
2021/05/30 08:53:33;;;;;;;2.17;1.20;;;;;;;17.74;nan;102759.22;5016807;28;20026;-78
2021/05/30 08:56:00;;;;;;;2.58;1.27;;;;;;;18.12;nan;102765.75;5001303;28;20037;-80
2021/05/30 08:58:37;;;;;;;3.40;1.30;;;;;;;18.06;nan;102761.34;5006031;28;20021;-78
2021/05/30 09:01:07;;;;;;;3.70;1.40;;;;;;;18.32;nan;102759.81;5009046;28;20053;-79
2021/05/30 09:03:32;;;;;;;3.05;1.10;;;;;;;18.39;nan;102752.28;5015224;28;20052;-78
2021/05/30 09:06:14;;;;;;;3.08;1.38;;;;;;;18.91;nan;102758.13;5005464;28;20033;-79
2021/05/30 09:08:42;;;;;;;2.30;1.23;;;;;;;18.83;nan;102763.16;5016185;28;20089;-79
2021/05/30 09:11:08;;;;;;;2.65;1.92;;;;;;;18.99;nan;102754.94;5005803;28;20033;-79
2021/05/30 09:13:52;;;;;;;5.25;3.92;;;;;;;18.87;nan;102756.16;5004790;28;20056;-78
2021/05/30 09:16:21;;;;;;;3.10;1.40;;;;;;;18.51;nan;102761.16;5006701;28;20665;-80
2021/05/30 09:18:46;;;;;;;3.22;1.30;;;;;;;18.75;nan;102759.00;5014179;28;20278;-79
2021/05/30 09:21:12;;;;;;;1.55;1.30;;;;;;;18.75;nan;102755.47;5004382;28;20548;-79
2021/05/30 09:23:40;;;;;;;1.52;1.33;;;;;;;18.96;nan;102754.63;5016186;28;20041;-78
2021/05/30 09:26:22;;;;;;;4.05;1.40;;;;;;;19.10;nan;102738.75;5005386;28;20484;-79
2021/05/30 09:29:11;;;;;;;3.20;1.40;;;;;;;18.93;nan;102747.00;5014352;28;20120;-78
2021/05/30 09:31:59;;;;;;;3.95;1.55;;;;;;;19.15;nan;102749.66;5007102;28;20033;-79
2021/05/30 09:34:25;;;;;;;2.60;1.33;;;;;;;19.35;nan;102741.69;5016626;28;20036;-78
2021/05/30 09:36:52;;;;;;;1.80;1.40;;;;;;;19.05;nan;102746.84;5017297;28;20029;-79
2021/05/30 09:39:34;;;;;;;4.47;1.75;;;;;;;19.06;nan;102751.22;5008306;28;20029;-79
2021/05/30 09:42:23;;;;;;;4.22;1.80;;;;;;;19.05;nan;102738.69;5005474;28;20025;-81
2021/05/30 09:44:55;;;;;;;2.85;1.90;;;;;;;19.30;nan;102747.91;5019390;28;20041;-79
2021/05/30 09:47:41;;;;;;;3.88;1.95;;;;;;;19.64;nan;102741.41;5002615;28;20053;-79
2021/05/30 09:50:12;;;;;;;4.38;1.80;;;;;;;19.83;nan;102745.34;5000674;28;20040;-79
2021/05/30 09:52:50;;;;;;;3.70;1.70;;;;;;;19.85;nan;102735.84;5020291;28;20022;-77
2021/05/30 09:55:21;;;;;;;2.72;1.85;;;;;;;19.35;nan;102746.28;5019252;28;20053;-78
2021/05/30 09:58:19;;;;;;;5.32;2.30;;;;;;;19.45;nan;102743.69;5002033;28;20566;-77
2021/05/30 10:01:05;;;;;;;4.25;2.85;;;;;;;19.77;nan;102739.06;5001338;28;20025;-77
2021/05/30 10:03:31;;;;;;;7.55;3.47;;;;;;;19.50;nan;102733.66;5002532;28;20778;-77
2021/05/30 10:06:00;;;;;;;8.18;4.70;;;;;;;20.02;nan;102743.84;4997654;28;20030;-77
2021/05/30 10:08:26;;;;;;;3.70;1.92;;;;;;;19.87;nan;102738.31;5002620;28;20033;-77
2021/05/30 10:10:52;;;;;;;5.30;2.53;;;;;;;20.06;nan;102727.81;5002114;28;20029;-77
2021/05/30 10:13:17;;;;;;;5.40;2.00;;;;;;;20.31;nan;102738.84;5022961;28;20415;-77
2021/05/30 10:15:44;;;;;;;2.70;1.75;;;;;;;20.40;nan;102742.66;5020012;28;20396;-77
2021/05/30 10:18:21;;;;;;;5.03;2.10;;;;;;;20.42;nan;102731.53;5020297;28;20029;-78
2021/05/30 10:20:50;;;;;;;3.83;1.77;;;;;;;20.54;nan;102731.31;5007640;28;20032;-77
2021/05/30 10:23:18;;;;;;;5.78;1.83;;;;;;;20.54;nan;102731.31;5022518;28;20025;-78
2021/05/30 10:25:45;;;;;;;4.53;1.95;;;;;;;20.22;nan;102733.06;5004068;28;20112;-78
2021/05/30 10:28:10;;;;;;;3.35;2.08;;;;;;;20.10;nan;102729.72;5008890;28;20033;-78
2021/05/30 10:30:38;;;;;;;3.42;1.65;;;;;;;20.47;nan;102740.56;5013950;28;20045;-77
2021/05/30 10:33:14;;;;;;;2.22;1.58;;;;;;;20.65;nan;102733.81;5017910;28;20025;-78
2021/05/30 10:35:43;;;;;;;3.30;1.88;;;;;;;20.68;nan;102729.75;5000510;28;20267;-77
2021/05/30 10:38:10;;;;;;;6.47;1.92;;;;;;;20.48;nan;102739.47;5022324;28;20051;-79
2021/05/30 10:40:38;;;;;;;2.38;1.67;;;;;;;20.73;nan;102729.75;5018443;28;20499;-78
2021/05/30 10:43:13;;;;;;;2.88;1.65;;;;;;;20.78;nan;102722.41;5003954;28;20025;-78
2021/05/30 10:45:42;;;;;;;5.82;1.90;;;;;;;21.11;nan;102720.28;5017344;28;20064;-77
2021/05/30 10:48:10;;;;;;;3.75;1.83;;;;;;;21.11;nan;102725.72;5015624;28;20037;-78
2021/05/30 10:50:40;;;;;;;4.97;1.77;;;;;;;20.98;nan;102718.06;5013038;28;20054;-78
2021/05/30 10:53:45;;;;;;;2.33;1.40;;;;;;;21.17;nan;102716.44;5002507;28;20061;-77
2021/05/30 10:56:31;;;;;;;4.57;1.90;;;;;;;21.36;nan;102705.84;5000463;28;20026;-77
2021/05/30 10:59:14;;;;;;;3.20;1.52;;;;;;;21.66;nan;102715.94;5011177;28;20083;-78
2021/05/30 11:01:43;;;;;;;2.42;1.52;;;;;;;21.84;nan;102707.16;4996239;28;20037;-78
2021/05/30 11:04:25;;;;;;;2.10;1.55;;;;;;;21.21;nan;102714.84;5003787;28;20392;-78
2021/05/30 11:06:54;;;;;;;8.05;6.07;;;;;;;21.80;nan;102700.63;4992990;28;20381;-77
2021/05/30 11:09:21;;;;;;;4.47;3.00;;;;;;;22.13;nan;102707.41;5015822;28;20109;-78
2021/05/30 11:12:23;;;;;;;16.00;10.20;;;;;;;22.44;nan;102697.16;5002639;28;20083;-77
2021/05/30 11:15:11;;;;;;;7.53;3.10;;;;;;;21.73;nan;102704.75;4998615;28;20061;-77
2021/05/30 11:17:53;;;;;;;3.97;1.90;;;;;;;21.43;nan;102711.88;5010908;28;20026;-78
2021/05/30 11:20:21;;;;;;;4.13;2.58;;;;;;;21.69;nan;102707.19;5000212;28;20065;-78
2021/05/30 11:22:58;;;;;;;7.03;4.80;;;;;;;21.97;nan;102701.13;5002259;28;20029;-76
2021/05/30 11:25:29;;;;;;;3.63;1.50;;;;;;;21.55;nan;102695.25;5014338;28;20025;-76
2021/05/30 11:27:59;;;;;;;3.13;1.80;;;;;;;21.50;nan;102695.22;4996068;28;20727;-77
2021/05/30 11:30:51;;;;;;;3.60;1.35;;;;;;;21.85;nan;102692.44;5011082;28;20483;-77
2021/05/30 11:33:25;;;;;;;3.60;1.50;;;;;;;22.01;nan;102698.66;5002661;28;20033;-77
2021/05/30 11:35:55;;;;;;;2.20;1.77;;;;;;;21.92;nan;102703.06;5002322;28;20025;-76
2021/05/30 11:38:35;;;;;;;3.55;1.77;;;;;;;21.62;nan;102693.03;4998616;28;20024;-77
2021/05/30 11:41:22;;;;;;;3.53;1.75;;;;;;;21.66;nan;102694.91;5012142;28;20034;-77
2021/05/30 11:43:57;;;;;;;2.25;1.70;;;;;;;21.81;nan;102691.34;5011014;28;20434;-76
2021/05/30 11:46:24;;;;;;;1.92;1.42;;;;;;;21.94;nan;102688.06;4998419;28;20036;-77
2021/05/30 11:49:11;;;;;;;2.22;1.70;;;;;;;22.07;nan;102681.19;4999089;28;20067;-77